createdAt,value
2022-11-03T00:01:35.300Z,2.10
2022-11-03T00:04:02.981Z,2.13
2022-11-03T00:06:30.676Z,1.90
2022-11-03T00:08:59.453Z,2.00
2022-11-03T00:11:33.729Z,2.07
2022-11-03T00:14:01.483Z,1.93
2022-11-03T00:16:29.220Z,1.60
2022-11-03T00:18:56.826Z,2.07
2022-11-03T00:21:24.590Z,2.00
2022-11-03T00:23:52.141Z,1.50
2022-11-03T00:26:21.750Z,2.57
2022-11-03T00:28:52.248Z,2.10
2022-11-03T00:31:21.778Z,2.80
2022-11-03T00:33:49.583Z,1.80
2022-11-03T00:36:19.959Z,2.30
2022-11-03T00:38:48.070Z,1.60
2022-11-03T00:41:16.914Z,1.63
2022-11-03T00:43:44.829Z,1.93
2022-11-03T00:46:14.195Z,1.47
2022-11-03T00:48:42.924Z,1.90
2022-11-03T00:51:12.440Z,2.00
2022-11-03T00:53:41.647Z,1.40
2022-11-03T00:56:12.180Z,1.93
2022-11-03T00:58:39.839Z,2.00
2022-11-03T01:01:09.240Z,1.60
2022-11-03T01:03:40.191Z,1.70
2022-11-03T01:06:27.896Z,2.47
2022-11-03T01:08:55.735Z,2.20
2022-11-03T01:11:43.224Z,1.60
2022-11-03T01:14:15.230Z,2.00
2022-11-03T01:16:43.718Z,2.10
2022-11-03T01:19:12.668Z,2.03
2022-11-03T01:21:40.334Z,1.97
2022-11-03T01:24:08.144Z,2.27
2022-11-03T01:26:35.689Z,2.00
2022-11-03T01:29:03.254Z,1.70
2022-11-03T01:31:30.881Z,1.80
2022-11-03T01:33:58.812Z,2.67
2022-11-03T01:36:28.371Z,2.10
2022-11-03T01:38:56.692Z,2.20
2022-11-03T01:41:26.479Z,2.20
2022-11-03T01:44:26.411Z,1.83
2022-11-03T01:46:58.652Z,1.60
2022-11-03T01:49:31.330Z,1.83
2022-11-03T01:52:04.811Z,1.70
2022-11-03T01:54:34.983Z,1.80
2022-11-03T01:57:06.433Z,1.90
2022-11-03T01:59:34.231Z,1.97
2022-11-03T02:02:01.998Z,2.37
2022-11-03T02:04:32.899Z,2.50
2022-11-03T02:07:14.263Z,2.03
2022-11-03T02:09:41.801Z,2.30
2022-11-03T02:12:10.273Z,2.10
2022-11-03T02:14:43.855Z,2.27
2022-11-03T02:17:14.338Z,3.30
2022-11-03T02:19:45.407Z,2.47
2022-11-03T02:22:30.833Z,2.53
2022-11-03T02:25:03.704Z,2.70
2022-11-03T02:27:32.887Z,1.77
2022-11-03T02:30:00.833Z,1.80
2022-11-03T02:32:32.308Z,2.43
2022-11-03T02:35:06.333Z,2.77
2022-11-03T02:37:39.102Z,1.70
2022-11-03T02:40:13.443Z,2.00
2022-11-03T02:42:45.718Z,2.10
2022-11-03T02:45:18.360Z,1.67
2022-11-03T02:47:47.392Z,2.10
2022-11-03T02:50:15.034Z,2.00
2022-11-03T02:52:44.636Z,3.00
2022-11-03T02:55:18.038Z,1.63
2022-11-03T02:57:55.021Z,1.90
2022-11-03T03:00:23.094Z,1.87
2022-11-03T03:02:56.339Z,2.40
2022-11-03T03:05:29.400Z,1.60
2022-11-03T03:08:02.611Z,1.80
2022-11-03T03:10:34.311Z,1.90
2022-11-03T03:13:07.771Z,2.43
2022-11-03T03:15:46.223Z,2.23
2022-11-03T03:18:21.153Z,1.90
2022-11-03T03:20:55.833Z,1.60
2022-11-03T03:23:26.311Z,2.23
2022-11-03T03:25:59.369Z,1.80
2022-11-03T03:28:34.864Z,2.10
2022-11-03T03:31:06.543Z,1.70
2022-11-03T03:33:35.380Z,1.93
2022-11-03T03:36:05.707Z,2.37
2022-11-03T03:38:37.040Z,2.70
2022-11-03T03:41:10.513Z,1.90
2022-11-03T03:43:45.346Z,2.57
2022-11-03T03:46:14.871Z,1.80
2022-11-03T03:48:42.945Z,2.50
2022-11-03T03:51:12.840Z,1.93
2022-11-03T03:53:40.518Z,2.33
2022-11-03T03:56:08.179Z,2.10
2022-11-03T03:58:35.723Z,2.00
2022-11-03T04:01:04.637Z,1.30
2022-11-03T04:03:32.227Z,2.10
2022-11-03T04:05:59.791Z,1.80
2022-11-03T04:08:27.345Z,2.10
2022-11-03T04:11:12.628Z,2.07
2022-11-03T04:13:57.856Z,2.40
2022-11-03T04:16:44.583Z,3.40
2022-11-03T04:19:30.021Z,2.23
2022-11-03T04:22:15.494Z,1.80
2022-11-03T04:24:45.717Z,2.23
2022-11-03T04:27:28.144Z,1.70
2022-11-03T04:29:58.344Z,1.63
2022-11-03T04:32:27.561Z,2.20
2022-11-03T04:34:55.430Z,2.20
2022-11-03T04:37:22.988Z,1.63
2022-11-03T04:39:50.576Z,1.93
2022-11-03T04:42:19.989Z,1.73
2022-11-03T04:44:48.200Z,2.10
2022-11-03T04:47:17.632Z,1.80
2022-11-03T04:49:49.011Z,2.33
2022-11-03T04:52:20.175Z,1.70
2022-11-03T04:54:50.244Z,2.00
2022-11-03T04:57:18.903Z,2.10
2022-11-03T04:59:48.780Z,2.00
2022-11-03T05:02:19.067Z,1.90
2022-11-03T05:04:48.123Z,2.00
2022-11-03T05:07:29.390Z,1.87
2022-11-03T05:09:56.975Z,2.23
2022-11-03T05:12:24.828Z,2.10
2022-11-03T05:14:58.026Z,2.67
2022-11-03T05:17:28.811Z,2.33
2022-11-03T05:20:00.980Z,1.90
2022-11-03T05:22:33.350Z,2.60
2022-11-03T05:25:04.993Z,2.10
2022-11-03T05:27:32.598Z,1.93
2022-11-03T05:30:01.431Z,2.60
2022-11-03T05:32:31.610Z,1.70
2022-11-03T05:35:00.765Z,2.13
2022-11-03T05:37:30.366Z,1.90
2022-11-03T05:40:00.312Z,2.43
2022-11-03T05:42:38.983Z,1.70
2022-11-03T05:45:16.747Z,2.73
2022-11-03T05:47:44.541Z,2.10
2022-11-03T05:50:17.572Z,2.00
2022-11-03T05:52:47.825Z,2.07
2022-11-03T05:55:26.616Z,2.17
2022-11-03T05:57:55.681Z,1.80
2022-11-03T06:00:28.981Z,1.60
2022-11-03T06:02:57.431Z,2.13
2022-11-03T06:05:27.836Z,1.53
2022-11-03T06:07:56.895Z,2.53
2022-11-03T06:10:27.896Z,2.37
2022-11-03T06:13:00.340Z,2.17
2022-11-03T06:15:31.859Z,2.50
2022-11-03T06:18:00.537Z,2.83
2022-11-03T06:20:29.909Z,2.13
2022-11-03T06:22:57.940Z,2.37
2022-11-03T06:25:30.220Z,2.20
2022-11-03T06:28:02.919Z,2.47
2022-11-03T06:30:32.270Z,1.80
2022-11-03T06:33:03.040Z,2.03
2022-11-03T06:35:32.249Z,2.10
2022-11-03T06:38:00.406Z,2.33
2022-11-03T06:40:35.305Z,2.13
2022-11-03T06:43:15.075Z,2.53
2022-11-03T06:45:51.082Z,2.03
2022-11-03T06:48:24.791Z,2.03
2022-11-03T06:50:54.766Z,2.30
2022-11-03T06:53:28.382Z,2.20
2022-11-03T06:55:56.853Z,2.23
2022-11-03T06:58:29.232Z,2.30
2022-11-03T07:01:03.344Z,2.03
2022-11-03T07:03:33.369Z,2.10
2022-11-03T07:06:05.770Z,2.23
2022-11-03T07:08:40.120Z,2.10
2022-11-03T07:11:15.504Z,1.83
2022-11-03T07:13:43.754Z,2.67
2022-11-03T07:16:19.544Z,3.00
2022-11-03T07:18:47.625Z,2.20
2022-11-03T07:21:29.888Z,2.10
2022-11-03T07:23:58.553Z,1.90
2022-11-03T07:26:27.238Z,2.60
2022-11-03T07:28:55.722Z,2.03
2022-11-03T07:31:25.983Z,2.47
2022-11-03T07:33:58.737Z,2.00
2022-11-03T07:36:32.162Z,2.30
2022-11-03T07:39:02.455Z,2.50
2022-11-03T07:41:34.546Z,2.23
2022-11-03T07:44:02.948Z,2.40
2022-11-03T07:46:30.693Z,3.40
2022-11-03T07:48:59.922Z,2.40
2022-11-03T07:51:31.873Z,2.60
2022-11-03T07:54:04.978Z,2.30
2022-11-03T07:56:36.481Z,2.60
2022-11-03T07:59:14.100Z,2.70
2022-11-03T08:01:44.718Z,2.53
2022-11-03T08:04:17.838Z,2.10
2022-11-03T08:06:46.998Z,1.70
2022-11-03T08:09:14.659Z,2.70
2022-11-03T08:11:42.250Z,2.30
2022-11-03T08:14:10.377Z,2.30
2022-11-03T08:16:38.317Z,2.77
2022-11-03T08:19:05.933Z,2.47
2022-11-03T08:21:33.560Z,1.93
2022-11-03T08:24:02.558Z,1.80
2022-11-03T08:26:30.173Z,2.20
2022-11-03T08:28:57.918Z,2.50
2022-11-03T08:31:25.631Z,1.80
2022-11-03T08:33:53.391Z,2.70
2022-11-03T08:36:21.211Z,2.13
2022-11-03T08:38:48.780Z,2.20
2022-11-03T08:41:17.684Z,1.67
2022-11-03T08:43:45.268Z,2.80
2022-11-03T08:46:17.670Z,1.80
2022-11-03T08:48:46.676Z,2.10
2022-11-03T08:51:15.138Z,1.57
2022-11-03T08:53:43.645Z,2.63
2022-11-03T08:56:13.165Z,2.27
2022-11-03T08:58:44.569Z,2.33
2022-11-03T09:01:12.250Z,2.23
2022-11-03T09:03:39.967Z,2.37
2022-11-03T09:06:08.273Z,1.67
2022-11-03T09:11:23.407Z,2.80
2022-11-03T09:13:52.359Z,2.33
2022-11-03T09:16:20.096Z,2.57
2022-11-03T09:18:47.765Z,2.47
2022-11-03T09:21:15.512Z,1.70
2022-11-03T09:23:43.124Z,2.07
2022-11-03T09:26:10.818Z,2.20
2022-11-03T09:28:38.379Z,2.33
2022-11-03T09:31:07.536Z,2.70
2022-11-03T09:33:35.117Z,2.10
2022-11-03T09:36:02.698Z,2.00
2022-11-03T09:38:30.240Z,3.07
2022-11-03T09:40:57.833Z,1.90
2022-11-03T09:43:25.428Z,2.40
2022-11-03T09:45:54.225Z,1.90
2022-11-03T09:48:23.246Z,1.93
2022-11-03T09:50:53.745Z,2.10
2022-11-03T09:53:22.247Z,2.07
2022-11-03T09:55:49.847Z,1.90
2022-11-03T09:58:18.973Z,2.63
2022-11-03T10:00:47.115Z,2.37
2022-11-03T10:03:17.885Z,2.20
2022-11-03T10:05:47.821Z,2.43
2022-11-03T10:08:22.864Z,2.70
2022-11-03T10:10:50.945Z,1.70
2022-11-03T10:13:25.049Z,2.70
2022-11-03T10:15:52.754Z,2.30
2022-11-03T10:18:20.898Z,1.80
2022-11-03T10:20:49.932Z,2.07
2022-11-03T10:23:17.460Z,2.60
2022-11-03T10:25:46.333Z,1.83
2022-11-03T10:28:17.317Z,2.10
2022-11-03T10:31:12.900Z,2.27
2022-11-03T10:33:42.345Z,1.70
2022-11-03T10:36:26.342Z,2.30
2022-11-03T10:38:54.341Z,2.27
2022-11-03T10:41:24.031Z,2.17
2022-11-03T10:44:05.685Z,2.63
2022-11-03T10:46:50.271Z,1.80
2022-11-03T10:49:20.488Z,1.60
2022-11-03T10:51:51.320Z,1.73
2022-11-03T10:54:20.713Z,2.50
2022-11-03T10:56:50.441Z,2.13
2022-11-03T10:59:20.377Z,2.07
2022-11-03T11:01:48.230Z,1.67
2022-11-03T11:04:17.358Z,1.80
2022-11-03T11:06:46.060Z,1.90
2022-11-03T11:09:20.974Z,1.90
2022-11-03T11:12:00.794Z,1.93
2022-11-03T11:14:40.039Z,2.00
2022-11-03T11:17:49.488Z,1.97
2022-11-03T11:20:36.110Z,1.60
2022-11-03T11:23:49.894Z,1.60
2022-11-03T11:26:34.693Z,3.50
2022-11-03T11:29:41.890Z,2.23
2022-11-03T11:32:52.497Z,2.27
2022-11-03T11:36:08.633Z,2.27
2022-11-03T11:39:10.428Z,1.97
2022-11-03T11:42:11.769Z,2.43
2022-11-03T11:44:58.529Z,3.30
2022-11-03T11:47:35.283Z,1.60
2022-11-03T11:50:29.181Z,2.83
2022-11-03T11:53:00.087Z,2.07
2022-11-03T11:55:35.091Z,2.33
2022-11-03T11:58:06.340Z,2.13
2022-11-03T12:00:35.978Z,2.17
2022-11-03T12:03:06.833Z,2.20
2022-11-03T12:05:59.861Z,2.13
2022-11-03T12:08:30.613Z,2.13
2022-11-03T12:11:00.610Z,2.13
2022-11-03T12:14:08.604Z,2.27
2022-11-03T12:16:38.005Z,2.10
2022-11-03T12:19:34.814Z,2.70
2022-11-03T12:22:03.434Z,2.70
2022-11-03T12:24:49.652Z,2.70
2022-11-03T12:27:40.596Z,3.17
2022-11-03T12:30:15.122Z,2.87
2022-11-03T12:32:42.687Z,2.40
2022-11-03T12:35:11.352Z,2.50
2022-11-03T12:37:39.166Z,2.70
2022-11-03T12:40:08.009Z,2.67
2022-11-03T12:42:35.831Z,2.23
2022-11-03T12:45:03.498Z,2.50
2022-11-03T12:47:32.448Z,2.60
2022-11-03T12:50:00.118Z,2.57
2022-11-03T12:52:27.707Z,3.00
2022-11-03T12:54:55.252Z,2.87
2022-11-03T12:57:22.795Z,3.13
2022-11-03T12:59:51.346Z,2.63
2022-11-03T13:02:19.006Z,3.13
2022-11-03T13:04:48.034Z,2.90
2022-11-03T13:07:18.168Z,2.90
2022-11-03T13:09:49.777Z,2.87
2022-11-03T13:12:34.064Z,3.50
2022-11-03T13:15:02.861Z,2.47
2022-11-03T13:17:40.196Z,2.17
2022-11-03T13:22:43.413Z,4.47
2022-11-03T13:25:11.058Z,3.30
2022-11-03T13:27:38.715Z,3.20
2022-11-03T13:30:08.788Z,3.00
2022-11-03T13:32:36.384Z,2.50
2022-11-03T13:35:04.555Z,2.53
2022-11-03T13:37:34.456Z,2.80
2022-11-03T13:40:01.987Z,2.40
2022-11-03T13:42:29.597Z,2.50
2022-11-03T13:44:57.701Z,2.80
2022-11-03T13:47:34.600Z,2.40
2022-11-03T13:50:14.482Z,2.53
2022-11-03T13:52:44.127Z,2.73
2022-11-03T14:00:47.587Z,2.03
2022-11-03T14:06:03.036Z,2.43
2022-11-03T14:08:32.092Z,2.23
2022-11-03T14:11:19.704Z,2.20
2022-11-03T14:13:46.468Z,2.10
2022-11-03T14:16:14.094Z,2.23
2022-11-03T14:18:41.690Z,1.90
2022-11-03T14:21:09.244Z,2.70
2022-11-03T14:23:38.108Z,2.27
2022-11-03T14:26:21.400Z,2.10
2022-11-03T14:28:53.563Z,2.30
2022-11-03T14:31:21.123Z,2.50
2022-11-03T14:33:48.734Z,2.57
2022-11-03T14:36:16.319Z,2.90
2022-11-03T14:38:49.917Z,2.13
2022-11-03T14:41:35.614Z,1.77
2022-11-03T14:44:03.427Z,1.90
2022-11-03T14:46:31.018Z,2.30
2022-11-03T14:49:01.743Z,1.90
2022-11-03T14:51:29.295Z,2.63
2022-11-03T14:53:58.445Z,3.17
2022-11-03T14:56:26.255Z,2.13
2022-11-03T14:58:53.852Z,2.37
2022-11-03T15:01:21.821Z,2.47
2022-11-03T15:03:49.457Z,1.87
2022-11-03T15:06:17.103Z,2.03
2022-11-03T15:08:44.755Z,2.03
2022-11-03T15:11:13.695Z,2.40
2022-11-03T15:13:45.822Z,2.00
2022-11-03T15:16:15.950Z,2.10
2022-11-03T15:18:44.538Z,3.23
2022-11-03T15:21:12.199Z,3.10
2022-11-03T15:26:28.866Z,2.00
2022-11-03T15:28:56.412Z,2.07
2022-11-03T15:31:24.628Z,2.87
2022-11-03T15:33:52.281Z,2.63
2022-11-03T15:36:20.759Z,1.87
2022-11-03T15:38:48.516Z,2.30
2022-11-03T15:41:19.397Z,2.27
2022-11-03T15:43:49.858Z,2.63
2022-11-03T15:46:18.857Z,2.50
2022-11-03T15:48:49.051Z,2.13
2022-11-03T15:51:17.022Z,2.80
2022-11-03T15:53:44.684Z,2.47
2022-11-03T15:56:12.240Z,2.60
2022-11-03T15:58:39.949Z,2.70
2022-11-03T16:01:08.970Z,2.90
2022-11-03T16:03:36.686Z,3.30
2022-11-03T16:06:04.309Z,2.13
2022-11-03T16:08:31.845Z,2.23
2022-11-03T16:10:59.426Z,3.07
2022-11-03T16:13:27.049Z,3.20
2022-11-03T16:15:54.755Z,2.33
2022-11-03T16:18:25.766Z,2.57
2022-11-03T16:20:53.410Z,2.70
2022-11-03T16:23:20.960Z,2.33
2022-11-03T16:25:48.494Z,2.50
2022-11-03T16:28:16.093Z,2.60
2022-11-03T16:30:43.673Z,2.30
2022-11-03T16:33:11.891Z,2.47
2022-11-03T16:35:40.855Z,2.27
2022-11-03T16:38:09.645Z,2.33
2022-11-03T16:40:37.440Z,2.10
2022-11-03T16:43:05.072Z,2.50
2022-11-03T16:45:37.416Z,2.50
2022-11-03T16:48:07.041Z,3.40
2022-11-03T16:50:35.454Z,2.57
2022-11-03T16:53:05.154Z,2.63
2022-11-03T16:55:35.085Z,2.60
2022-11-03T16:58:02.806Z,2.60
2022-11-03T17:00:30.362Z,2.70
2022-11-03T17:02:59.670Z,2.97
2022-11-03T17:05:27.238Z,3.10
2022-11-03T17:07:54.790Z,3.17
2022-11-03T17:10:24.344Z,4.47
2022-11-03T17:12:52.218Z,2.90
2022-11-03T17:15:19.896Z,2.47
2022-11-03T17:17:47.472Z,3.40
2022-11-03T17:20:15.735Z,2.00
2022-11-03T17:22:43.331Z,3.10
2022-11-03T17:25:12.790Z,2.60
2022-11-03T17:27:46.420Z,2.40
2022-11-03T17:30:18.520Z,3.00
2022-11-03T17:32:46.541Z,2.47
2022-11-03T17:35:18.967Z,2.60
2022-11-03T17:37:46.654Z,2.50
2022-11-03T17:40:16.968Z,3.60
2022-11-03T17:42:45.994Z,2.63
2022-11-03T17:45:15.421Z,3.20
2022-11-03T17:47:43.983Z,4.10
2022-11-03T17:50:14.951Z,3.20
2022-11-03T17:52:43.895Z,2.53
2022-11-03T17:55:18.672Z,2.37
2022-11-03T17:57:48.108Z,3.07
2022-11-03T18:00:17.847Z,2.87
2022-11-03T18:02:46.287Z,2.77
2022-11-03T18:05:21.989Z,3.60
2022-11-03T18:07:50.432Z,2.57
2022-11-03T18:10:18.059Z,3.50
2022-11-03T18:13:09.014Z,2.97
2022-11-03T18:15:38.352Z,3.63
2022-11-03T18:18:29.606Z,3.40
2022-11-03T18:20:57.906Z,3.10
2022-11-03T18:23:26.792Z,2.30
2022-11-03T18:25:55.384Z,2.83
2022-11-03T18:28:24.322Z,3.20
2022-11-03T18:30:54.780Z,2.87
2022-11-03T18:33:26.347Z,3.17
2022-11-03T18:35:54.981Z,2.53
2022-11-03T18:38:24.901Z,2.70
2022-11-03T18:40:53.032Z,2.57
2022-11-03T18:43:22.248Z,3.00
2022-11-03T18:45:52.520Z,2.70
2022-11-03T18:48:20.291Z,2.87
2022-11-03T18:50:50.206Z,2.97
2022-11-03T18:53:19.607Z,2.67
2022-11-03T18:55:47.388Z,2.27
2022-11-03T18:58:18.153Z,3.30
2022-11-03T19:00:46.219Z,2.90
2022-11-03T19:03:18.177Z,2.53
2022-11-03T19:05:47.807Z,2.20
2022-11-03T19:08:20.615Z,3.13
2022-11-03T19:10:48.450Z,2.50
2022-11-03T19:13:21.836Z,2.83
2022-11-03T19:15:49.466Z,2.87
2022-11-03T19:18:18.611Z,2.17
2022-11-03T19:20:46.208Z,2.20
2022-11-03T19:23:13.755Z,3.17
2022-11-03T19:25:43.956Z,2.43
2022-11-03T19:28:14.380Z,2.30
2022-11-03T19:30:42.601Z,3.00
2022-11-03T19:33:17.998Z,2.73
2022-11-03T19:35:47.343Z,2.80
2022-11-03T19:38:17.847Z,3.03
2022-11-03T19:41:00.723Z,3.13
2022-11-03T19:43:34.200Z,3.13
2022-11-03T19:46:02.409Z,2.87
2022-11-03T19:48:34.285Z,3.30
2022-11-03T19:51:05.953Z,2.93
2022-11-03T19:53:34.169Z,2.87
2022-11-03T19:56:02.555Z,3.50
2022-11-03T19:58:30.578Z,2.93
2022-11-03T20:01:02.844Z,2.73
2022-11-03T20:03:33.394Z,2.87
2022-11-03T20:06:01.171Z,2.60
2022-11-03T20:08:32.309Z,2.30
2022-11-03T20:11:00.635Z,3.33
2022-11-03T20:13:38.341Z,4.03
2022-11-03T20:16:12.425Z,3.40
2022-11-03T20:18:40.305Z,2.77
2022-11-03T20:21:08.641Z,3.47
2022-11-03T20:23:39.558Z,3.53
2022-11-03T20:26:13.571Z,3.20
2022-11-03T20:28:41.545Z,2.57
2022-11-03T20:31:09.518Z,3.33
2022-11-03T20:33:37.279Z,3.20
2022-11-03T20:36:05.647Z,3.00
2022-11-03T20:38:34.363Z,2.67
2022-11-03T20:41:11.257Z,3.20
2022-11-03T20:43:40.837Z,3.23
2022-11-03T20:46:21.440Z,3.30
2022-11-03T20:48:49.142Z,3.00
2022-11-03T20:51:18.201Z,3.23
2022-11-03T20:53:46.046Z,3.37
2022-11-03T20:56:19.882Z,2.30
2022-11-03T20:58:48.166Z,2.80
2022-11-03T21:01:18.441Z,2.90
2022-11-03T21:03:59.256Z,2.77
2022-11-03T21:06:29.879Z,3.37
2022-11-03T21:08:58.753Z,2.43
2022-11-03T21:11:30.883Z,2.70
2022-11-03T21:14:00.991Z,3.00
2022-11-03T21:16:48.646Z,3.00
2022-11-03T21:19:35.783Z,2.87
2022-11-03T21:22:03.551Z,3.03
2022-11-03T21:24:31.139Z,2.83
2022-11-03T21:27:00.286Z,2.97
2022-11-03T21:29:53.422Z,3.17
2022-11-03T21:32:17.818Z,3.00
2022-11-03T21:34:45.743Z,3.40
2022-11-03T21:37:15.686Z,4.10
2022-11-03T21:39:44.283Z,2.70
2022-11-03T21:42:33.309Z,2.93
2022-11-03T21:45:01.880Z,3.10
2022-11-03T21:47:29.873Z,3.30
2022-11-03T21:49:56.876Z,2.80
2022-11-03T21:52:31.838Z,2.83
2022-11-03T21:55:00.589Z,3.23
2022-11-03T21:57:30.458Z,3.70
2022-11-03T21:59:59.227Z,2.73
2022-11-03T22:02:29.701Z,2.60
2022-11-03T22:04:57.322Z,4.00
2022-11-03T22:07:25.352Z,3.00
2022-11-03T22:09:53.006Z,2.90
2022-11-03T22:12:20.607Z,5.00
2022-11-03T22:15:07.063Z,3.90
2022-11-03T22:17:34.767Z,3.60
2022-11-03T22:20:20.230Z,3.80
2022-11-03T22:23:05.666Z,3.20
2022-11-03T22:25:50.825Z,4.30
2022-11-03T22:28:18.706Z,4.23
2022-11-03T22:31:06.403Z,3.60
2022-11-03T22:33:54.682Z,4.27
2022-11-03T22:36:24.016Z,3.97
2022-11-03T22:39:09.240Z,6.13
2022-11-03T22:41:54.700Z,3.80
2022-11-03T22:44:39.840Z,4.10
2022-11-03T22:47:08.976Z,3.83
2022-11-03T22:49:36.979Z,3.90
2022-11-03T22:52:04.903Z,3.50
2022-11-03T22:54:31.470Z,4.00
2022-11-03T22:56:59.080Z,3.83
2022-11-03T22:59:26.658Z,4.20
2022-11-03T23:01:54.444Z,3.67
2022-11-03T23:04:23.482Z,3.50
2022-11-03T23:06:51.183Z,4.10
2022-11-03T23:09:18.834Z,3.67
2022-11-03T23:11:46.413Z,4.10
2022-11-03T23:14:14.727Z,3.60
2022-11-03T23:16:44.121Z,4.00
2022-11-03T23:19:31.363Z,4.20
2022-11-03T23:22:00.915Z,3.70
2022-11-03T23:24:46.556Z,4.40
2022-11-03T23:27:14.793Z,4.60
2022-11-03T23:29:42.410Z,3.43
2022-11-03T23:32:10.037Z,4.10
2022-11-03T23:34:37.594Z,4.10
2022-11-03T23:37:06.489Z,4.17
2022-11-03T23:39:34.050Z,3.90
2022-11-03T23:42:01.636Z,3.57
2022-11-03T23:44:49.849Z,3.87
2022-11-03T23:47:37.004Z,4.37
2022-11-03T23:50:05.124Z,3.57
2022-11-03T23:52:34.170Z,3.60
2022-11-03T23:55:01.721Z,4.00
2022-11-03T23:57:47.346Z,4.40
